createdAt,value
2019-01-25T00:11:18.676Z,22.83
2019-01-25T00:27:12.524Z,21.93
2019-01-25T00:43:06.285Z,24.87
2019-01-25T00:59:00.206Z,27.00
2019-01-25T01:14:53.803Z,18.70
2019-01-25T01:30:47.562Z,19.93
2019-01-25T01:46:41.525Z,20.90
2019-01-25T02:02:35.520Z,19.00
2019-01-25T02:18:29.417Z,20.67
2019-01-25T02:34:23.228Z,15.60
2019-01-25T02:50:18.783Z,15.23
2019-01-25T03:06:12.484Z,15.87
2019-01-25T03:22:06.583Z,15.00
2019-01-25T03:38:00.295Z,14.23
2019-01-25T03:53:54.303Z,15.63
2019-01-25T04:09:48.326Z,14.37
2019-01-25T04:25:42.403Z,14.57
2019-01-25T04:41:36.120Z,14.07
2019-01-25T04:57:29.957Z,13.97
2019-01-25T05:13:23.544Z,15.10
2019-01-25T05:29:18.918Z,13.47
2019-01-25T05:45:15.516Z,13.40
2019-01-25T06:01:09.527Z,14.93
2019-01-25T06:17:03.258Z,13.53
2019-01-25T06:32:57.026Z,15.87
2019-01-25T06:48:50.983Z,20.63
2019-01-25T07:04:44.784Z,18.77
2019-01-25T07:20:38.719Z,22.30
2019-01-25T07:36:32.267Z,17.37
2019-01-25T07:52:26.110Z,14.83
2019-01-25T08:08:19.805Z,15.60
2019-01-25T08:24:34.623Z,16.13
2019-01-25T08:40:28.849Z,14.53
2019-01-25T08:56:22.653Z,14.10
2019-01-25T09:12:23.099Z,11.83
2019-01-25T09:28:11.913Z,13.00
2019-01-25T09:44:05.614Z,13.47
2019-01-25T09:59:59.229Z,12.97
2019-01-25T10:15:53.118Z,12.60
2019-01-25T10:31:46.715Z,15.20
2019-01-25T10:47:40.324Z,15.17
2019-01-25T11:03:33.884Z,15.53
2019-01-25T11:19:27.666Z,15.20
2019-01-25T11:35:21.449Z,14.77
2019-01-25T11:51:15.147Z,15.07
2019-01-25T12:07:08.908Z,14.03
2019-01-25T12:23:02.611Z,12.63
2019-01-25T12:38:56.246Z,13.07
2019-01-25T12:54:49.827Z,13.60
2019-01-25T13:10:44.287Z,13.90
2019-01-25T13:26:38.399Z,16.63
2019-01-25T13:42:32.249Z,21.23
2019-01-25T13:58:26.149Z,21.37
2019-01-25T14:14:19.607Z,20.97
2019-01-25T14:30:16.316Z,22.23
2019-01-25T14:46:10.030Z,26.70
2019-01-25T15:02:03.778Z,25.13
2019-01-25T15:17:57.644Z,24.30
2019-01-25T15:33:51.748Z,25.20
2019-01-25T15:49:45.579Z,25.67
2019-01-25T16:05:39.937Z,28.23
2019-01-25T16:21:33.583Z,26.33
2019-01-25T16:37:27.338Z,26.10
2019-01-25T16:53:20.889Z,27.37
2019-01-25T17:09:14.291Z,30.80
2019-01-25T17:25:10.722Z,33.50
2019-01-25T17:41:04.619Z,36.70
2019-01-25T17:56:58.621Z,35.17
2019-01-25T18:12:52.279Z,38.53
2019-01-25T18:28:47.404Z,38.07
2019-01-25T18:44:41.186Z,37.07
2019-01-25T19:00:34.947Z,38.13
2019-01-25T19:16:28.755Z,37.93
2019-01-25T19:32:22.627Z,36.70
2019-01-25T19:48:16.589Z,37.30
2019-01-25T20:04:10.114Z,40.23
2019-01-25T20:20:05.102Z,44.73
2019-01-25T20:36:11.480Z,44.33
2019-01-25T20:52:05.159Z,47.13
2019-01-25T21:07:58.884Z,44.00
2019-01-25T21:23:52.522Z,48.07
2019-01-25T21:39:46.136Z,42.13
2019-01-25T21:55:39.687Z,42.47
2019-01-25T22:11:33.566Z,40.93
2019-01-25T22:27:27.250Z,45.83
2019-01-25T22:43:21.480Z,41.80
2019-01-25T22:59:15.466Z,40.97
2019-01-25T23:15:10.446Z,40.00
2019-01-25T23:31:04.427Z,40.13
2019-01-25T23:46:57.953Z,31.37
